Hamilton Island, Australia
Current Conditions -  °F | °C
As of 4:00 AM on Monday 26 Jan 2015 (Local Time) from YBHM Reporting Station
Clear Clear  
Wind Chill: 81°   Ceiling: Unl
Heat Index: 85°   Visibility: 6mi
Dew Point: 73°   Wind: 12mph
Humidity: 79%   Direction: 300°WNW
Pressure: 29.68"   Gusts: NA
Location:  20.35°S, 148.95°E
Report Text: YBHM 251800Z AUTO 30010KT 9999 // NCD 27/23 Q1005
Loading
Personal Weather Stations






























Interactive Weather Map New forecast layout! Learn more

10-Day Weather Forecast

Advertisements
Track Severe Weather on mobile